sensor_id;sensor_type;location;lat;lon;timestamp;P1;durP1;ratioP1;P2;durP2;ratioP2
54831;SDS011;40730;53.068;6.572;2023-05-10T00:00:47;21.05;;;13.45;;
54831;SDS011;40730;53.068;6.572;2023-05-10T00:03:12;20.45;;;13.68;;
54831;SDS011;40730;53.068;6.572;2023-05-10T00:05:38;22.67;;;14.20;;
54831;SDS011;40730;53.068;6.572;2023-05-10T00:08:04;23.00;;;14.13;;
54831;SDS011;40730;53.068;6.572;2023-05-10T00:10:29;27.20;;;15.02;;
54831;SDS011;40730;53.068;6.572;2023-05-10T00:12:55;27.75;;;14.82;;
54831;SDS011;40730;53.068;6.572;2023-05-10T00:15:20;32.20;;;15.95;;
54831;SDS011;40730;53.068;6.572;2023-05-10T00:17:46;25.85;;;14.07;;
54831;SDS011;40730;53.068;6.572;2023-05-10T00:20:12;27.73;;;14.85;;
54831;SDS011;40730;53.068;6.572;2023-05-10T00:22:37;27.63;;;14.63;;
54831;SDS011;40730;53.068;6.572;2023-05-10T00:25:03;29.25;;;15.95;;
54831;SDS011;40730;53.068;6.572;2023-05-10T00:27:29;24.20;;;14.05;;
54831;SDS011;40730;53.068;6.572;2023-05-10T00:29:54;26.73;;;14.65;;
54831;SDS011;40730;53.068;6.572;2023-05-10T00:32:20;37.58;;;17.65;;
54831;SDS011;40730;53.068;6.572;2023-05-10T00:34:46;37.40;;;16.95;;
54831;SDS011;40730;53.068;6.572;2023-05-10T00:37:11;28.92;;;15.48;;
54831;SDS011;40730;53.068;6.572;2023-05-10T00:39:37;25.17;;;13.85;;
54831;SDS011;40730;53.068;6.572;2023-05-10T00:42:02;29.88;;;15.23;;
54831;SDS011;40730;53.068;6.572;2023-05-10T00:44:29;24.02;;;13.07;;
54831;SDS011;40730;53.068;6.572;2023-05-10T00:46:56;25.90;;;13.02;;
54831;SDS011;40730;53.068;6.572;2023-05-10T00:49:22;23.85;;;13.00;;
54831;SDS011;40730;53.068;6.572;2023-05-10T00:51:48;29.55;;;15.40;;
54831;SDS011;40730;53.068;6.572;2023-05-10T00:54:14;27.55;;;14.35;;
54831;SDS011;40730;53.068;6.572;2023-05-10T00:56:40;29.55;;;14.75;;
54831;SDS011;40730;53.068;6.572;2023-05-10T00:59:08;23.90;;;13.57;;
54831;SDS011;40730;53.068;6.572;2023-05-10T01:01:34;26.17;;;15.32;;
54831;SDS011;40730;53.068;6.572;2023-05-10T01:04:00;27.88;;;14.00;;
54831;SDS011;40730;53.068;6.572;2023-05-10T01:06:28;32.45;;;14.77;;
54831;SDS011;40730;53.068;6.572;2023-05-10T01:08:53;33.47;;;15.18;;
54831;SDS011;40730;53.068;6.572;2023-05-10T01:11:19;25.63;;;14.15;;
54831;SDS011;40730;53.068;6.572;2023-05-10T01:13:46;28.63;;;14.43;;
54831;SDS011;40730;53.068;6.572;2023-05-10T01:16:17;27.35;;;14.55;;
54831;SDS011;40730;53.068;6.572;2023-05-10T01:18:43;29.75;;;15.02;;
54831;SDS011;40730;53.068;6.572;2023-05-10T01:26:14;34.17;;;15.82;;
54831;SDS011;40730;53.068;6.572;2023-05-10T01:29:10;40.15;;;15.75;;
54831;SDS011;40730;53.068;6.572;2023-05-10T01:34:27;28.30;;;14.07;;
54831;SDS011;40730;53.068;6.572;2023-05-10T01:37:07;28.88;;;13.73;;
54831;SDS011;40730;53.068;6.572;2023-05-10T01:39:45;31.35;;;15.50;;
54831;SDS011;40730;53.068;6.572;2023-05-10T01:42:23;30.55;;;14.43;;
54831;SDS011;40730;53.068;6.572;2023-05-10T01:47:40;18.85;;;11.57;;
54831;SDS011;40730;53.068;6.572;2023-05-10T01:50:42;18.75;;;11.48;;
54831;SDS011;40730;53.068;6.572;2023-05-10T01:53:01;22.00;;;12.10;;
54831;SDS011;40730;53.068;6.572;2023-05-10T01:55:29;20.52;;;12.60;;
54831;SDS011;40730;53.068;6.572;2023-05-10T01:58:19;23.30;;;13.35;;
54831;SDS011;40730;53.068;6.572;2023-05-10T02:00:47;18.52;;;12.85;;
54831;SDS011;40730;53.068;6.572;2023-05-10T02:03:14;22.25;;;12.77;;
54831;SDS011;40730;53.068;6.572;2023-05-10T02:05:43;23.25;;;13.32;;
54831;SDS011;40730;53.068;6.572;2023-05-10T02:08:10;23.13;;;14.02;;
54831;SDS011;40730;53.068;6.572;2023-05-10T02:10:38;27.88;;;15.90;;
54831;SDS011;40730;53.068;6.572;2023-05-10T02:13:05;25.70;;;14.68;;
54831;SDS011;40730;53.068;6.572;2023-05-10T02:15:32;33.13;;;15.95;;
54831;SDS011;40730;53.068;6.572;2023-05-10T02:17:58;31.58;;;16.45;;
54831;SDS011;40730;53.068;6.572;2023-05-10T02:20:27;30.50;;;15.98;;
54831;SDS011;40730;53.068;6.572;2023-05-10T02:22:54;35.15;;;16.65;;
54831;SDS011;40730;53.068;6.572;2023-05-10T02:25:23;32.38;;;16.63;;
54831;SDS011;40730;53.068;6.572;2023-05-10T02:27:50;27.20;;;15.05;;
54831;SDS011;40730;53.068;6.572;2023-05-10T02:30:18;30.67;;;15.70;;
54831;SDS011;40730;53.068;6.572;2023-05-10T02:32:45;36.72;;;17.65;;
54831;SDS011;40730;53.068;6.572;2023-05-10T02:35:12;34.75;;;17.20;;
54831;SDS011;40730;53.068;6.572;2023-05-10T02:37:39;35.90;;;16.23;;
54831;SDS011;40730;53.068;6.572;2023-05-10T02:40:05;34.35;;;16.67;;
54831;SDS011;40730;53.068;6.572;2023-05-10T02:42:33;37.25;;;17.23;;
54831;SDS011;40730;53.068;6.572;2023-05-10T02:45:03;40.10;;;17.75;;
54831;SDS011;40730;53.068;6.572;2023-05-10T02:47:33;36.67;;;17.33;;
54831;SDS011;40730;53.068;6.572;2023-05-10T02:49:59;40.38;;;19.17;;
54831;SDS011;40730;53.068;6.572;2023-05-10T02:52:25;48.60;;;20.15;;
54831;SDS011;40730;53.068;6.572;2023-05-10T02:54:54;46.60;;;18.58;;
54831;SDS011;40730;53.068;6.572;2023-05-10T02:57:27;50.35;;;19.88;;
54831;SDS011;40730;53.068;6.572;2023-05-10T02:59:59;49.50;;;20.40;;
54831;SDS011;40730;53.068;6.572;2023-05-10T03:02:27;51.92;;;21.80;;
54831;SDS011;40730;53.068;6.572;2023-05-10T03:04:55;55.70;;;21.05;;
54831;SDS011;40730;53.068;6.572;2023-05-10T03:07:21;59.03;;;21.95;;
54831;SDS011;40730;53.068;6.572;2023-05-10T03:09:47;59.35;;;22.17;;
54831;SDS011;40730;53.068;6.572;2023-05-10T03:17:52;58.42;;;22.23;;
54831;SDS011;40730;53.068;6.572;2023-05-10T03:23:07;46.38;;;20.70;;
54831;SDS011;40730;53.068;6.572;2023-05-10T03:26:09;65.00;;;21.63;;
54831;SDS011;40730;53.068;6.572;2023-05-10T03:28:37;55.80;;;20.63;;
54831;SDS011;40730;53.068;6.572;2023-05-10T03:31:04;53.08;;;21.15;;
54831;SDS011;40730;53.068;6.572;2023-05-10T03:33:31;51.38;;;21.02;;
54831;SDS011;40730;53.068;6.572;2023-05-10T03:35:57;47.67;;;20.48;;
54831;SDS011;40730;53.068;6.572;2023-05-10T03:38:23;58.83;;;23.55;;
54831;SDS011;40730;53.068;6.572;2023-05-10T03:40:48;54.88;;;23.10;;
54831;SDS011;40730;53.068;6.572;2023-05-10T03:43:14;54.20;;;22.00;;
54831;SDS011;40730;53.068;6.572;2023-05-10T03:45:39;57.83;;;23.35;;
54831;SDS011;40730;53.068;6.572;2023-05-10T03:48:05;50.70;;;20.60;;
54831;SDS011;40730;53.068;6.572;2023-05-10T03:50:31;56.90;;;21.40;;
54831;SDS011;40730;53.068;6.572;2023-05-10T03:52:56;51.47;;;20.83;;
54831;SDS011;40730;53.068;6.572;2023-05-10T03:55:22;45.85;;;20.30;;
54831;SDS011;40730;53.068;6.572;2023-05-10T03:57:48;39.50;;;18.88;;
54831;SDS011;40730;53.068;6.572;2023-05-10T04:00:18;40.00;;;18.55;;
54831;SDS011;40730;53.068;6.572;2023-05-10T04:02:44;36.08;;;17.45;;
54831;SDS011;40730;53.068;6.572;2023-05-10T04:05:10;35.53;;;15.93;;
54831;SDS011;40730;53.068;6.572;2023-05-10T04:07:36;42.38;;;17.25;;
54831;SDS011;40730;53.068;6.572;2023-05-10T04:10:01;34.63;;;16.92;;
54831;SDS011;40730;53.068;6.572;2023-05-10T04:12:27;43.75;;;18.67;;
54831;SDS011;40730;53.068;6.572;2023-05-10T04:14:53;36.88;;;16.80;;
54831;SDS011;40730;53.068;6.572;2023-05-10T04:17:18;33.17;;;16.05;;
54831;SDS011;40730;53.068;6.572;2023-05-10T04:19:44;35.17;;;15.57;;
54831;SDS011;40730;53.068;6.572;2023-05-10T04:22:09;33.17;;;16.27;;
54831;SDS011;40730;53.068;6.572;2023-05-10T04:24:35;29.75;;;15.13;;
54831;SDS011;40730;53.068;6.572;2023-05-10T04:27:01;31.83;;;15.07;;
54831;SDS011;40730;53.068;6.572;2023-05-10T04:29:26;23.60;;;13.43;;
54831;SDS011;40730;53.068;6.572;2023-05-10T04:31:52;28.40;;;15.02;;
54831;SDS011;40730;53.068;6.572;2023-05-10T04:34:19;30.13;;;15.88;;
54831;SDS011;40730;53.068;6.572;2023-05-10T04:36:45;32.35;;;15.88;;
54831;SDS011;40730;53.068;6.572;2023-05-10T04:39:11;29.48;;;16.20;;
54831;SDS011;40730;53.068;6.572;2023-05-10T04:41:37;29.67;;;15.13;;
54831;SDS011;40730;53.068;6.572;2023-05-10T04:44:03;36.20;;;16.20;;
54831;SDS011;40730;53.068;6.572;2023-05-10T04:46:29;27.73;;;14.98;;
54831;SDS011;40730;53.068;6.572;2023-05-10T04:48:54;25.33;;;14.90;;
54831;SDS011;40730;53.068;6.572;2023-05-10T04:51:20;26.08;;;14.38;;
54831;SDS011;40730;53.068;6.572;2023-05-10T04:53:45;28.35;;;14.80;;
54831;SDS011;40730;53.068;6.572;2023-05-10T04:56:11;25.80;;;14.60;;
54831;SDS011;40730;53.068;6.572;2023-05-10T04:58:36;25.75;;;15.13;;
54831;SDS011;40730;53.068;6.572;2023-05-10T05:01:08;25.08;;;14.68;;
54831;SDS011;40730;53.068;6.572;2023-05-10T05:03:34;24.13;;;14.48;;
54831;SDS011;40730;53.068;6.572;2023-05-10T05:06:00;29.27;;;15.10;;
54831;SDS011;40730;53.068;6.572;2023-05-10T05:08:25;23.10;;;13.75;;
54831;SDS011;40730;53.068;6.572;2023-05-10T05:10:51;23.35;;;14.05;;
54831;SDS011;40730;53.068;6.572;2023-05-10T05:13:17;19.65;;;12.65;;
54831;SDS011;40730;53.068;6.572;2023-05-10T05:15:43;22.13;;;13.00;;
54831;SDS011;40730;53.068;6.572;2023-05-10T05:18:09;16.38;;;10.75;;
54831;SDS011;40730;53.068;6.572;2023-05-10T05:20:34;19.95;;;10.98;;
54831;SDS011;40730;53.068;6.572;2023-05-10T05:23:00;19.23;;;11.63;;
54831;SDS011;40730;53.068;6.572;2023-05-10T05:25:26;17.38;;;10.85;;
54831;SDS011;40730;53.068;6.572;2023-05-10T05:27:51;14.00;;;8.93;;
54831;SDS011;40730;53.068;6.572;2023-05-10T05:30:17;14.45;;;9.43;;
54831;SDS011;40730;53.068;6.572;2023-05-10T05:32:42;15.13;;;9.27;;
54831;SDS011;40730;53.068;6.572;2023-05-10T05:35:08;15.80;;;9.52;;
54831;SDS011;40730;53.068;6.572;2023-05-10T05:37:34;12.10;;;8.63;;
54831;SDS011;40730;53.068;6.572;2023-05-10T05:40:00;18.13;;;8.38;;
54831;SDS011;40730;53.068;6.572;2023-05-10T05:42:26;14.43;;;8.73;;
54831;SDS011;40730;53.068;6.572;2023-05-10T05:44:52;17.02;;;8.15;;
54831;SDS011;40730;53.068;6.572;2023-05-10T05:47:17;13.77;;;7.75;;
54831;SDS011;40730;53.068;6.572;2023-05-10T05:49:43;14.05;;;7.32;;
54831;SDS011;40730;53.068;6.572;2023-05-10T05:52:10;11.45;;;7.25;;
54831;SDS011;40730;53.068;6.572;2023-05-10T05:54:36;11.00;;;6.10;;
54831;SDS011;40730;53.068;6.572;2023-05-10T05:57:02;11.07;;;6.55;;
54831;SDS011;40730;53.068;6.572;2023-05-10T05:59:27;10.75;;;6.47;;
54831;SDS011;40730;53.068;6.572;2023-05-10T06:01:53;7.13;;;5.32;;
54831;SDS011;40730;53.068;6.572;2023-05-10T06:04:19;7.43;;;5.07;;
54831;SDS011;40730;53.068;6.572;2023-05-10T06:06:45;5.18;;;2.78;;
54831;SDS011;40730;53.068;6.572;2023-05-10T06:09:10;2.25;;;1.70;;
54831;SDS011;40730;53.068;6.572;2023-05-10T06:11:36;2.17;;;1.67;;
54831;SDS011;40730;53.068;6.572;2023-05-10T06:14:02;2.95;;;1.42;;
54831;SDS011;40730;53.068;6.572;2023-05-10T06:16:33;1.55;;;1.10;;
54831;SDS011;40730;53.068;6.572;2023-05-10T06:18:59;1.20;;;0.90;;
54831;SDS011;40730;53.068;6.572;2023-05-10T06:21:25;2.88;;;1.00;;
54831;SDS011;40730;53.068;6.572;2023-05-10T06:23:50;1.50;;;0.85;;
54831;SDS011;40730;53.068;6.572;2023-05-10T06:26:16;2.00;;;0.88;;
54831;SDS011;40730;53.068;6.572;2023-05-10T06:28:42;1.75;;;1.25;;
54831;SDS011;40730;53.068;6.572;2023-05-10T06:31:07;1.48;;;0.85;;
54831;SDS011;40730;53.068;6.572;2023-05-10T06:33:33;2.58;;;1.63;;
54831;SDS011;40730;53.068;6.572;2023-05-10T06:35:59;4.43;;;1.15;;
54831;SDS011;40730;53.068;6.572;2023-05-10T06:38:25;1.92;;;1.20;;
54831;SDS011;40730;53.068;6.572;2023-05-10T06:40:50;2.80;;;0.70;;
54831;SDS011;40730;53.068;6.572;2023-05-10T06:43:16;1.60;;;0.70;;
54831;SDS011;40730;53.068;6.572;2023-05-10T06:45:42;1.35;;;0.55;;
54831;SDS011;40730;53.068;6.572;2023-05-10T06:48:07;1.00;;;0.40;;
54831;SDS011;40730;53.068;6.572;2023-05-10T06:50:33;0.60;;;0.30;;
54831;SDS011;40730;53.068;6.572;2023-05-10T06:52:59;0.88;;;0.30;;
54831;SDS011;40730;53.068;6.572;2023-05-10T06:55:26;0.80;;;0.40;;
54831;SDS011;40730;53.068;6.572;2023-05-10T06:57:52;1.23;;;0.40;;
54831;SDS011;40730;53.068;6.572;2023-05-10T07:00:18;0.45;;;0.28;;
54831;SDS011;40730;53.068;6.572;2023-05-10T07:02:44;1.23;;;0.38;;
54831;SDS011;40730;53.068;6.572;2023-05-10T07:05:10;1.42;;;0.50;;
54831;SDS011;40730;53.068;6.572;2023-05-10T07:07:35;2.30;;;0.40;;
54831;SDS011;40730;53.068;6.572;2023-05-10T07:10:01;0.70;;;0.40;;
54831;SDS011;40730;53.068;6.572;2023-05-10T07:12:27;0.28;;;0.20;;
54831;SDS011;40730;53.068;6.572;2023-05-10T07:14:53;0.90;;;0.13;;
54831;SDS011;40730;53.068;6.572;2023-05-10T07:17:18;0.50;;;0.20;;
54831;SDS011;40730;53.068;6.572;2023-05-10T07:19:44;1.40;;;0.20;;
54831;SDS011;40730;53.068;6.572;2023-05-10T07:22:10;1.27;;;0.20;;
54831;SDS011;40730;53.068;6.572;2023-05-10T07:24:36;0.28;;;0.20;;
54831;SDS011;40730;53.068;6.572;2023-05-10T07:27:01;1.58;;;0.20;;
54831;SDS011;40730;53.068;6.572;2023-05-10T07:29:27;2.65;;;0.30;;
54831;SDS011;40730;53.068;6.572;2023-05-10T07:31:53;0.68;;;0.40;;
54831;SDS011;40730;53.068;6.572;2023-05-10T07:34:19;2.60;;;0.70;;
54831;SDS011;40730;53.068;6.572;2023-05-10T07:36:45;0.75;;;0.40;;
54831;SDS011;40730;53.068;6.572;2023-05-10T07:39:10;2.05;;;0.50;;
54831;SDS011;40730;53.068;6.572;2023-05-10T07:41:36;2.35;;;0.98;;
54831;SDS011;40730;53.068;6.572;2023-05-10T07:44:02;2.63;;;2.42;;
54831;SDS011;40730;53.068;6.572;2023-05-10T07:46:29;3.03;;;2.72;;
54831;SDS011;40730;53.068;6.572;2023-05-10T07:48:54;5.95;;;3.55;;
54831;SDS011;40730;53.068;6.572;2023-05-10T07:51:20;3.60;;;3.30;;
54831;SDS011;40730;53.068;6.572;2023-05-10T07:53:46;5.45;;;4.25;;
54831;SDS011;40730;53.068;6.572;2023-05-10T07:56:22;5.20;;;4.70;;
54831;SDS011;40730;53.068;6.572;2023-05-10T07:58:50;4.47;;;4.07;;
54831;SDS011;40730;53.068;6.572;2023-05-10T08:01:17;5.53;;;4.28;;
54831;SDS011;40730;53.068;6.572;2023-05-10T08:03:42;5.47;;;4.97;;
54831;SDS011;40730;53.068;6.572;2023-05-10T08:06:08;4.85;;;4.45;;
54831;SDS011;40730;53.068;6.572;2023-05-10T08:08:34;7.35;;;5.22;;
54831;SDS011;40730;53.068;6.572;2023-05-10T08:10:59;5.50;;;5.00;;
54831;SDS011;40730;53.068;6.572;2023-05-10T08:13:25;6.55;;;5.90;;
54831;SDS011;40730;53.068;6.572;2023-05-10T08:15:50;6.88;;;5.57;;
54831;SDS011;40730;53.068;6.572;2023-05-10T08:18:18;6.50;;;5.75;;
54831;SDS011;40730;53.068;6.572;2023-05-10T08:20:44;6.80;;;6.10;;
54831;SDS011;40730;53.068;6.572;2023-05-10T08:23:09;10.45;;;6.32;;
54831;SDS011;40730;53.068;6.572;2023-05-10T08:25:37;7.13;;;5.57;;
54831;SDS011;40730;53.068;6.572;2023-05-10T08:28:02;9.63;;;6.60;;
54831;SDS011;40730;53.068;6.572;2023-05-10T08:30:28;8.07;;;6.22;;
54831;SDS011;40730;53.068;6.572;2023-05-10T08:32:54;7.13;;;6.13;;
54831;SDS011;40730;53.068;6.572;2023-05-10T08:35:19;7.20;;;5.10;;
54831;SDS011;40730;53.068;6.572;2023-05-10T08:37:45;4.53;;;3.97;;
54831;SDS011;40730;53.068;6.572;2023-05-10T08:40:11;8.65;;;5.00;;
54831;SDS011;40730;53.068;6.572;2023-05-10T08:42:38;6.43;;;4.32;;
54831;SDS011;40730;53.068;6.572;2023-05-10T08:45:08;8.18;;;4.38;;
54831;SDS011;40730;53.068;6.572;2023-05-10T08:47:35;5.88;;;4.65;;
54831;SDS011;40730;53.068;6.572;2023-05-10T08:50:03;5.63;;;4.13;;
54831;SDS011;40730;53.068;6.572;2023-05-10T08:52:29;5.82;;;3.63;;
54831;SDS011;40730;53.068;6.572;2023-05-10T08:54:55;5.35;;;4.35;;
54831;SDS011;40730;53.068;6.572;2023-05-10T08:57:21;5.18;;;4.57;;
54831;SDS011;40730;53.068;6.572;2023-05-10T08:59:47;7.15;;;5.22;;
54831;SDS011;40730;53.068;6.572;2023-05-10T09:02:13;6.22;;;4.80;;
54831;SDS011;40730;53.068;6.572;2023-05-10T09:04:39;6.07;;;5.15;;
54831;SDS011;40730;53.068;6.572;2023-05-10T09:07:06;25.38;;;15.90;;
54831;SDS011;40730;53.068;6.572;2023-05-10T09:09:32;81.30;;;50.40;;
54831;SDS011;40730;53.068;6.572;2023-05-10T09:11:58;34.88;;;26.85;;
54831;SDS011;40730;53.068;6.572;2023-05-10T09:14:24;37.85;;;28.45;;
54831;SDS011;40730;53.068;6.572;2023-05-10T09:16:50;22.35;;;18.10;;
54831;SDS011;40730;53.068;6.572;2023-05-10T09:19:16;11.73;;;9.65;;
54831;SDS011;40730;53.068;6.572;2023-05-10T09:21:42;9.23;;;8.18;;
54831;SDS011;40730;53.068;6.572;2023-05-10T09:24:08;9.95;;;8.70;;
54831;SDS011;40730;53.068;6.572;2023-05-10T09:26:34;21.48;;;18.80;;
54831;SDS011;40730;53.068;6.572;2023-05-10T09:29:01;27.42;;;24.63;;
54831;SDS011;40730;53.068;6.572;2023-05-10T09:34:20;20.52;;;17.00;;
54831;SDS011;40730;53.068;6.572;2023-05-10T09:36:57;13.45;;;8.70;;
54831;SDS011;40730;53.068;6.572;2023-05-10T09:39:38;9.57;;;7.15;;
54831;SDS011;40730;53.068;6.572;2023-05-10T09:42:05;7.38;;;5.90;;
54831;SDS011;40730;53.068;6.572;2023-05-10T09:44:32;11.65;;;8.57;;
54831;SDS011;40730;53.068;6.572;2023-05-10T09:46:59;6.35;;;5.03;;
54831;SDS011;40730;53.068;6.572;2023-05-10T09:49:25;4.95;;;3.83;;
54831;SDS011;40730;53.068;6.572;2023-05-10T09:52:01;4.10;;;3.45;;
54831;SDS011;40730;53.068;6.572;2023-05-10T09:54:31;4.90;;;3.53;;
54831;SDS011;40730;53.068;6.572;2023-05-10T09:56:58;4.70;;;3.55;;
54831;SDS011;40730;53.068;6.572;2023-05-10T09:59:27;9.05;;;7.00;;
54831;SDS011;40730;53.068;6.572;2023-05-10T10:01:57;9.52;;;6.78;;
54831;SDS011;40730;53.068;6.572;2023-05-10T10:04:25;5.30;;;3.58;;
54831;SDS011;40730;53.068;6.572;2023-05-10T10:07:04;6.80;;;4.97;;
54831;SDS011;40730;53.068;6.572;2023-05-10T10:09:30;7.65;;;4.85;;
54831;SDS011;40730;53.068;6.572;2023-05-10T10:11:57;5.95;;;3.90;;
54831;SDS011;40730;53.068;6.572;2023-05-10T10:14:24;4.47;;;3.20;;
54831;SDS011;40730;53.068;6.572;2023-05-10T10:16:50;4.95;;;3.15;;
54831;SDS011;40730;53.068;6.572;2023-05-10T10:19:17;5.72;;;3.47;;
54831;SDS011;40730;53.068;6.572;2023-05-10T10:21:44;6.43;;;3.88;;
54831;SDS011;40730;53.068;6.572;2023-05-10T10:24:10;4.53;;;3.92;;
54831;SDS011;40730;53.068;6.572;2023-05-10T10:26:36;6.30;;;5.05;;
54831;SDS011;40730;53.068;6.572;2023-05-10T10:34:29;7.28;;;6.05;;
54831;SDS011;40730;53.068;6.572;2023-05-10T10:36:56;5.25;;;4.25;;
54831;SDS011;40730;53.068;6.572;2023-05-10T10:39:23;6.38;;;4.40;;
54831;SDS011;40730;53.068;6.572;2023-05-10T10:41:53;6.70;;;4.35;;
54831;SDS011;40730;53.068;6.572;2023-05-10T10:54:52;6.45;;;4.85;;
54831;SDS011;40730;53.068;6.572;2023-05-10T10:57:31;9.30;;;5.57;;
54831;SDS011;40730;53.068;6.572;2023-05-10T11:02:50;6.63;;;4.93;;
54831;SDS011;40730;53.068;6.572;2023-05-10T11:07:58;6.22;;;5.00;;
54831;SDS011;40730;53.068;6.572;2023-05-10T11:10:25;6.30;;;4.78;;
54831;SDS011;40730;53.068;6.572;2023-05-10T11:13:05;7.72;;;4.35;;
54831;SDS011;40730;53.068;6.572;2023-05-10T11:15:36;6.28;;;4.00;;
54831;SDS011;40730;53.068;6.572;2023-05-10T11:18:17;5.13;;;4.30;;
54831;SDS011;40730;53.068;6.572;2023-05-10T11:20:51;6.85;;;4.30;;
54831;SDS011;40730;53.068;6.572;2023-05-10T11:23:21;6.45;;;4.57;;
54831;SDS011;40730;53.068;6.572;2023-05-10T11:25:47;7.35;;;4.30;;
54831;SDS011;40730;53.068;6.572;2023-05-10T11:28:16;7.20;;;3.97;;
54831;SDS011;40730;53.068;6.572;2023-05-10T11:30:43;5.40;;;3.70;;
54831;SDS011;40730;53.068;6.572;2023-05-10T11:33:09;8.25;;;3.85;;
54831;SDS011;40730;53.068;6.572;2023-05-10T11:35:40;8.02;;;3.70;;
54831;SDS011;40730;53.068;6.572;2023-05-10T11:38:06;3.45;;;3.15;;
54831;SDS011;40730;53.068;6.572;2023-05-10T11:40:33;5.25;;;3.20;;
54831;SDS011;40730;53.068;6.572;2023-05-10T11:43:02;4.45;;;3.53;;
54831;SDS011;40730;53.068;6.572;2023-05-10T11:45:31;6.07;;;4.00;;
54831;SDS011;40730;53.068;6.572;2023-05-10T11:47:57;4.93;;;4.20;;
54831;SDS011;40730;53.068;6.572;2023-05-10T11:50:24;5.97;;;4.05;;
54831;SDS011;40730;53.068;6.572;2023-05-10T11:52:54;7.90;;;4.43;;
54831;SDS011;40730;53.068;6.572;2023-05-10T11:55:21;6.88;;;4.68;;
54831;SDS011;40730;53.068;6.572;2023-05-10T11:57:47;6.53;;;5.43;;
54831;SDS011;40730;53.068;6.572;2023-05-10T12:00:16;7.18;;;4.55;;
54831;SDS011;40730;53.068;6.572;2023-05-10T12:02:42;8.00;;;5.03;;
54831;SDS011;40730;53.068;6.572;2023-05-10T12:05:08;7.55;;;5.45;;
54831;SDS011;40730;53.068;6.572;2023-05-10T12:07:34;6.07;;;4.97;;
54831;SDS011;40730;53.068;6.572;2023-05-10T12:10:07;10.85;;;6.07;;
54831;SDS011;40730;53.068;6.572;2023-05-10T12:12:37;8.02;;;5.28;;
54831;SDS011;40730;53.068;6.572;2023-05-10T12:15:04;8.48;;;5.72;;
54831;SDS011;40730;53.068;6.572;2023-05-10T12:17:36;8.75;;;5.82;;
54831;SDS011;40730;53.068;6.572;2023-05-10T12:20:13;11.77;;;7.00;;
54831;SDS011;40730;53.068;6.572;2023-05-10T12:22:40;8.60;;;6.60;;
54831;SDS011;40730;53.068;6.572;2023-05-10T12:25:08;8.60;;;6.38;;
54831;SDS011;40730;53.068;6.572;2023-05-10T12:27:35;8.05;;;6.28;;
54831;SDS011;40730;53.068;6.572;2023-05-10T12:30:01;9.27;;;5.93;;
54831;SDS011;40730;53.068;6.572;2023-05-10T12:32:37;7.15;;;5.38;;
54831;SDS011;40730;53.068;6.572;2023-05-10T12:35:04;11.35;;;5.75;;
54831;SDS011;40730;53.068;6.572;2023-05-10T12:37:29;12.82;;;6.97;;
54831;SDS011;40730;53.068;6.572;2023-05-10T12:39:55;9.68;;;7.00;;
54831;SDS011;40730;53.068;6.572;2023-05-10T12:42:21;10.02;;;6.35;;
54831;SDS011;40730;53.068;6.572;2023-05-10T12:44:46;10.35;;;6.97;;
54831;SDS011;40730;53.068;6.572;2023-05-10T12:47:12;10.35;;;6.20;;
54831;SDS011;40730;53.068;6.572;2023-05-10T12:49:37;8.95;;;6.05;;
54831;SDS011;40730;53.068;6.572;2023-05-10T12:52:03;7.53;;;5.60;;
54831;SDS011;40730;53.068;6.572;2023-05-10T12:54:28;7.72;;;5.85;;
54831;SDS011;40730;53.068;6.572;2023-05-10T12:56:54;9.10;;;5.88;;
54831;SDS011;40730;53.068;6.572;2023-05-10T12:59:20;10.13;;;5.88;;
54831;SDS011;40730;53.068;6.572;2023-05-10T13:01:45;8.32;;;5.88;;
54831;SDS011;40730;53.068;6.572;2023-05-10T13:04:11;7.32;;;5.40;;
54831;SDS011;40730;53.068;6.572;2023-05-10T13:06:37;6.10;;;5.32;;
54831;SDS011;40730;53.068;6.572;2023-05-10T13:09:02;7.28;;;5.10;;
54831;SDS011;40730;53.068;6.572;2023-05-10T13:11:28;7.10;;;5.45;;
54831;SDS011;40730;53.068;6.572;2023-05-10T13:13:54;9.25;;;5.57;;
54831;SDS011;40730;53.068;6.572;2023-05-10T13:16:20;5.35;;;4.32;;
54831;SDS011;40730;53.068;6.572;2023-05-10T13:18:46;7.90;;;5.07;;
54831;SDS011;40730;53.068;6.572;2023-05-10T13:21:11;8.02;;;5.05;;
54831;SDS011;40730;53.068;6.572;2023-05-10T13:23:37;7.00;;;4.90;;
54831;SDS011;40730;53.068;6.572;2023-05-10T13:26:02;6.40;;;4.57;;
54831;SDS011;40730;53.068;6.572;2023-05-10T13:28:28;5.57;;;4.18;;
54831;SDS011;40730;53.068;6.572;2023-05-10T13:30:54;7.45;;;5.05;;
54831;SDS011;40730;53.068;6.572;2023-05-10T13:33:20;7.45;;;4.43;;
54831;SDS011;40730;53.068;6.572;2023-05-10T13:35:45;7.72;;;4.60;;
54831;SDS011;40730;53.068;6.572;2023-05-10T13:38:12;7.47;;;5.00;;
54831;SDS011;40730;53.068;6.572;2023-05-10T13:40:38;8.52;;;4.97;;
54831;SDS011;40730;53.068;6.572;2023-05-10T13:43:04;7.15;;;4.00;;
54831;SDS011;40730;53.068;6.572;2023-05-10T13:45:29;8.38;;;5.30;;
54831;SDS011;40730;53.068;6.572;2023-05-10T13:47:55;8.30;;;5.35;;
54831;SDS011;40730;53.068;6.572;2023-05-10T13:50:20;7.45;;;4.80;;
54831;SDS011;40730;53.068;6.572;2023-05-10T13:52:46;9.55;;;4.35;;
54831;SDS011;40730;53.068;6.572;2023-05-10T13:55:12;5.25;;;4.22;;
54831;SDS011;40730;53.068;6.572;2023-05-10T13:57:38;7.43;;;4.18;;
54831;SDS011;40730;53.068;6.572;2023-05-10T14:00:03;5.82;;;4.20;;
54831;SDS011;40730;53.068;6.572;2023-05-10T14:02:30;6.07;;;4.35;;
54831;SDS011;40730;53.068;6.572;2023-05-10T14:04:56;7.28;;;4.90;;
54831;SDS011;40730;53.068;6.572;2023-05-10T14:07:21;7.28;;;4.95;;
54831;SDS011;40730;53.068;6.572;2023-05-10T14:09:47;9.80;;;5.45;;
54831;SDS011;40730;53.068;6.572;2023-05-10T14:12:13;7.40;;;4.93;;
54831;SDS011;40730;53.068;6.572;2023-05-10T14:14:39;6.13;;;4.57;;
54831;SDS011;40730;53.068;6.572;2023-05-10T14:17:05;5.80;;;4.15;;
54831;SDS011;40730;53.068;6.572;2023-05-10T14:19:31;5.93;;;4.35;;
54831;SDS011;40730;53.068;6.572;2023-05-10T14:21:58;7.80;;;3.95;;
54831;SDS011;40730;53.068;6.572;2023-05-10T14:24:24;6.65;;;4.53;;
54831;SDS011;40730;53.068;6.572;2023-05-10T14:26:50;7.30;;;4.95;;
54831;SDS011;40730;53.068;6.572;2023-05-10T14:29:18;6.20;;;4.82;;
54831;SDS011;40730;53.068;6.572;2023-05-10T14:31:47;4.90;;;4.35;;
54831;SDS011;40730;53.068;6.572;2023-05-10T14:34:12;8.93;;;5.55;;
54831;SDS011;40730;53.068;6.572;2023-05-10T14:36:38;11.52;;;6.18;;
54831;SDS011;40730;53.068;6.572;2023-05-10T14:39:04;8.88;;;5.65;;
54831;SDS011;40730;53.068;6.572;2023-05-10T14:41:31;8.82;;;5.80;;
54831;SDS011;40730;53.068;6.572;2023-05-10T14:43:57;7.55;;;5.90;;
54831;SDS011;40730;53.068;6.572;2023-05-10T14:46:23;8.10;;;5.95;;
54831;SDS011;40730;53.068;6.572;2023-05-10T14:48:49;6.75;;;5.40;;
54831;SDS011;40730;53.068;6.572;2023-05-10T14:51:14;10.55;;;5.82;;
54831;SDS011;40730;53.068;6.572;2023-05-10T14:53:40;10.10;;;6.45;;
54831;SDS011;40730;53.068;6.572;2023-05-10T14:56:05;8.23;;;5.45;;
54831;SDS011;40730;53.068;6.572;2023-05-10T14:58:31;8.57;;;5.72;;
54831;SDS011;40730;53.068;6.572;2023-05-10T15:00:57;7.10;;;5.43;;
54831;SDS011;40730;53.068;6.572;2023-05-10T15:03:23;7.35;;;5.15;;
54831;SDS011;40730;53.068;6.572;2023-05-10T15:05:48;6.90;;;5.15;;
54831;SDS011;40730;53.068;6.572;2023-05-10T15:08:14;7.75;;;5.03;;
54831;SDS011;40730;53.068;6.572;2023-05-10T15:10:39;8.20;;;5.70;;
54831;SDS011;40730;53.068;6.572;2023-05-10T15:13:05;6.50;;;4.80;;
54831;SDS011;40730;53.068;6.572;2023-05-10T15:15:31;5.63;;;4.82;;
54831;SDS011;40730;53.068;6.572;2023-05-10T15:17:56;8.10;;;5.30;;